Sc Draco — VRQF3 — position and weather

sailwx.info

Track history (hours):
 
Tides and Currents Weather Stations Pressure Air Temp Water Temp Dewpoint Dewpoint Depression Visibility Wind Speed Wind Dir Waves Ship Positions

Sc Draco

Last reported at 2017-Sep-08 00:34 UTC. Time now 2017-Sep-26 02:10 UTC.
Position N 29°21' W 094°46'.
Warning: this ship's position is 18 days out of date.

Length 182 m; draft 7.2 m.

Type: Tanker. MMSI: 477439800.

Date/timePositionNaut miles runAvg speedWind from/ knotsBaromVisibWave heightAir tempDewpointWater temp
2017-Sep-08 00:34N 29°21' W 094°46'510.5
2017-Sep-08 00:05N 29°25' W 094°49'211.2
2017-Sep-07 23:57N 29°26' W 094°50'510.6
2017-Sep-07 23:30N 29°30' W 094°52'611.9
2017-Sep-07 23:01N 29°35' W 094°56'611.1
2017-Sep-07 22:30N 29°40' W 094°59'4 8.7
2017-Sep-07 22:00N 29°44' W 095°02'4 7.3
2017-Sep-07 21:30N 29°45' W 095°05'1 0.0
2017-Sep-06 02:42N 29°45' W 095°06'0 0.8
2017-Sep-06 02:30N 29°45' W 095°06'2 4.6
2017-Sep-06 02:00N 29°44' W 095°03'4 7.1
2017-Sep-06 01:30N 29°42' W 095°00'510.8
2017-Sep-06 01:00N 29°37' W 094°57'612.2
2017-Sep-06 00:30N 29°32' W 094°54'612.3
2017-Sep-06 00:00N 29°27' W 094°50'612.4
2017-Sep-05 23:29N 29°21' W 094°47'  
2017-Sep-02 08:23N 29°19' W 094°28'0 0.0
2017-Sep-01 09:05N 29°19' W 094°28'0 0.0
2017-Sep-01 08:47N 29°19' W 094°28'0 0.0
2017-Sep-01 08:26N 29°19' W 094°28'0 0.0
2017-Sep-01 08:00N 29°19' W 094°28'3 6.2
2017-Sep-01 07:28N 29°16' W 094°26'4 9.2
2017-Sep-01 07:00N 29°12' W 094°24'4 7.7
2017-Sep-01 06:30N 29°08' W 094°22'612.4
2017-Sep-01 06:00N 29°05' W 094°16'713.5
2017-Sep-01 05:30N 29°01' W 094°10'713.4
2017-Sep-01 05:00N 28°57' W 094°04'713.2
2017-Sep-01 04:30N 28°54' W 093°57'  
2017-Aug-29 01:59N 25°31' W 079°29'1312.3
2017-Aug-29 00:54N 25°44' W 079°28'  
Track history (hours):
 
Tides and Currents Weather Stations Pressure Air Temp Water Temp Dewpoint Dewpoint Depression Visibility Wind Speed Wind Dir Waves Ship Positions

Sc Draco

Last reported at 2017-Sep-08 00:34 UTC. Time now 2017-Sep-26 02:10 UTC.
Position N 29°21' W 094°46'.
Warning: this ship's position is 18 days out of date.

Length 182 m; draft 7.2 m.

Type: Tanker. MMSI: 477439800.

Date/timePositionNaut miles runAvg speedWind from/ knotsBaromVisibWave heightAir tempDewpointWater temp
2017-Sep-08 00:34N 29°21' W 094°46'510.5
2017-Sep-08 00:05N 29°25' W 094°49'211.2
2017-Sep-07 23:57N 29°26' W 094°50'510.6
2017-Sep-07 23:30N 29°30' W 094°52'611.9
2017-Sep-07 23:01N 29°35' W 094°56'611.1
2017-Sep-07 22:30N 29°40' W 094°59'4 8.7
2017-Sep-07 22:00N 29°44' W 095°02'4 7.3
2017-Sep-07 21:30N 29°45' W 095°05'1 0.0
2017-Sep-06 02:42N 29°45' W 095°06'0 0.8
2017-Sep-06 02:30N 29°45' W 095°06'2 4.6
2017-Sep-06 02:00N 29°44' W 095°03'4 7.1
2017-Sep-06 01:30N 29°42' W 095°00'510.8
2017-Sep-06 01:00N 29°37' W 094°57'612.2
2017-Sep-06 00:30N 29°32' W 094°54'612.3
2017-Sep-06 00:00N 29°27' W 094°50'612.4
2017-Sep-05 23:29N 29°21' W 094°47'  
2017-Sep-02 08:23N 29°19' W 094°28'0 0.0
2017-Sep-01 09:05N 29°19' W 094°28'0 0.0
2017-Sep-01 08:47N 29°19' W 094°28'0 0.0
2017-Sep-01 08:26N 29°19' W 094°28'0 0.0
2017-Sep-01 08:00N 29°19' W 094°28'3 6.2
2017-Sep-01 07:28N 29°16' W 094°26'4 9.2
2017-Sep-01 07:00N 29°12' W 094°24'4 7.7
2017-Sep-01 06:30N 29°08' W 094°22'612.4
2017-Sep-01 06:00N 29°05' W 094°16'713.5
2017-Sep-01 05:30N 29°01' W 094°10'713.4
2017-Sep-01 05:00N 28°57' W 094°04'713.2
2017-Sep-01 04:30N 28°54' W 093°57'  
2017-Aug-29 01:59N 25°31' W 079°29'1312.3
2017-Aug-29 00:54N 25°44' W 079°28'  

Dump ship's entire track history